createdAt,value
2023-04-23T00:05:47.559Z,68.66
2023-04-23T00:08:21.755Z,68.41
2023-04-23T00:10:53.093Z,68.12
2023-04-23T00:13:22.983Z,68.13
2023-04-23T00:15:53.643Z,67.62
2023-04-23T00:18:24.009Z,67.49
2023-04-23T00:20:54.552Z,67.25
2023-04-23T00:23:25.012Z,67.22
2023-04-23T00:25:55.327Z,67.30
2023-04-23T00:28:25.674Z,67.08
2023-04-23T00:30:55.990Z,66.74
2023-04-23T00:33:26.212Z,66.93
2023-04-23T00:35:56.526Z,67.00
2023-04-23T00:38:28.749Z,66.91
2023-04-23T00:40:59.106Z,66.67
2023-04-23T00:43:29.455Z,67.00
2023-04-23T00:45:59.864Z,66.87
2023-04-23T00:48:31.652Z,66.82
2023-04-23T00:51:06.012Z,66.83
2023-04-23T00:53:36.908Z,66.64
2023-04-23T00:56:08.569Z,66.59
2023-04-23T00:58:40.533Z,66.66
2023-04-23T01:01:11.138Z,66.72
2023-04-23T01:03:44.742Z,66.56
2023-04-23T01:06:15.544Z,66.36
2023-04-23T01:08:47.698Z,66.20
2023-04-23T01:11:19.570Z,66.03
2023-04-23T01:13:50.029Z,66.36
2023-04-23T01:16:20.989Z,66.14
2023-04-23T03:18:52.386Z,61.57
2023-04-23T03:21:22.939Z,61.34
2023-04-23T03:23:53.379Z,61.41
2023-04-23T03:26:23.471Z,60.92
2023-04-23T03:28:54.422Z,60.17
2023-04-23T03:31:24.897Z,60.04
2023-04-23T03:33:55.588Z,59.84
2023-04-23T03:36:33.129Z,59.78
2023-04-23T03:39:04.748Z,59.40
2023-04-23T03:41:48.369Z,59.79
2023-04-23T03:44:21.976Z,59.96
2023-04-23T03:46:54.711Z,59.47
2023-04-23T03:49:25.460Z,59.55
2023-04-23T03:51:55.822Z,59.45
2023-04-23T03:54:28.288Z,58.97
2023-04-23T03:57:15.014Z,58.99
2023-04-23T04:00:24.023Z,58.80
2023-04-23T04:02:54.536Z,58.45
2023-04-23T04:05:27.563Z,58.55
2023-04-23T04:07:58.171Z,58.37
2023-04-23T04:10:29.186Z,58.54
2023-04-23T04:12:59.910Z,57.57
2023-04-23T04:15:30.924Z,56.76
2023-04-23T04:18:03.452Z,57.21
2023-04-23T04:20:33.738Z,56.85
2023-04-23T04:23:04.092Z,56.56
2023-04-23T04:25:34.602Z,56.37
2023-04-23T04:28:06.001Z,56.60
2023-04-23T04:30:36.896Z,56.28
2023-04-23T04:33:07.513Z,56.04
2023-04-23T04:35:38.155Z,55.53
2023-04-23T04:38:08.497Z,55.84
2023-04-23T04:40:38.790Z,55.85
2023-04-23T04:43:09.577Z,55.97
2023-04-23T04:45:39.950Z,55.62
2023-04-23T04:48:10.119Z,55.77
2023-04-23T04:50:40.557Z,55.71
2023-04-23T13:47:22.529Z,100.00
2023-04-23T13:49:52.916Z,100.00
2023-04-23T13:52:23.423Z,100.00
2023-04-23T13:54:55.329Z,100.00
2023-04-23T13:57:26.332Z,100.00
2023-04-23T14:00:02.002Z,100.00
2023-04-23T14:02:35.617Z,100.00
2023-04-23T14:05:07.145Z,100.00
2023-04-23T14:07:38.330Z,100.00
2023-04-23T14:10:09.330Z,100.00
2023-04-23T14:12:41.419Z,100.00
2023-04-23T14:15:12.392Z,100.00
2023-04-23T14:17:45.287Z,100.00
2023-04-23T14:20:22.086Z,100.00
2023-04-23T14:22:57.784Z,100.00
2023-04-23T14:25:33.552Z,100.00
2023-04-23T14:28:13.888Z,100.00
2023-04-23T14:30:44.210Z,100.00
2023-04-23T14:33:14.499Z,100.00
2023-04-23T14:35:44.714Z,100.00
2023-04-23T14:38:15.186Z,100.00
2023-04-23T14:40:45.451Z,100.00
2023-04-23T14:43:16.271Z,100.00
2023-04-23T14:45:47.333Z,100.00
2023-04-23T14:48:17.726Z,100.00
2023-04-23T14:50:48.905Z,100.00
2023-04-23T14:53:19.648Z,100.00
2023-04-23T14:55:50.022Z,100.00
2023-04-23T14:58:20.292Z,100.00
2023-04-23T15:00:51.908Z,100.00
2023-04-23T15:03:22.584Z,100.00
2023-04-23T15:05:53.213Z,100.00
2023-04-23T15:08:23.715Z,100.00
2023-04-23T15:10:54.038Z,100.00
2023-04-23T15:13:59.852Z,100.00
2023-04-23T15:19:09.072Z,100.00
2023-04-23T15:21:39.561Z,100.00
2023-04-23T15:24:10.330Z,100.00
2023-04-23T15:26:42.503Z,100.00
2023-04-23T15:29:12.969Z,100.00
2023-04-23T15:31:43.966Z,100.00
2023-04-23T15:34:15.522Z,100.00
2023-04-23T15:36:45.697Z,100.00
2023-04-23T15:39:15.895Z,100.00
2023-04-23T15:41:46.446Z,100.00
2023-04-23T15:44:17.291Z,100.00
2023-04-23T15:46:47.826Z,100.00
2023-04-23T15:49:18.232Z,100.00
2023-04-23T15:51:48.736Z,100.00
2023-04-23T15:54:18.987Z,100.00
2023-04-23T15:56:49.290Z,100.00
2023-04-23T15:59:19.582Z,100.00
2023-04-23T16:01:50.077Z,100.00
2023-04-23T16:04:20.645Z,100.00
2023-04-23T16:06:51.138Z,100.00
2023-04-23T16:09:21.503Z,100.00
2023-04-23T16:11:52.213Z,100.00
2023-04-23T16:14:22.623Z,100.00
2023-04-23T16:16:52.925Z,100.00
2023-04-23T16:19:23.746Z,100.00
2023-04-23T16:21:53.914Z,100.00
2023-04-23T16:24:25.561Z,100.00
2023-04-23T16:26:55.309Z,100.00
2023-04-23T16:29:25.337Z,100.00
2023-04-23T16:31:55.784Z,100.00
2023-04-23T16:34:26.030Z,100.00
2023-04-23T16:36:56.373Z,100.00
2023-04-23T16:39:27.315Z,100.00
2023-04-23T16:41:57.551Z,100.00
2023-04-23T16:44:28.353Z,100.00
2023-04-23T16:46:59.253Z,100.00
2023-04-23T16:49:29.736Z,100.00
2023-04-23T16:52:21.065Z,100.00
2023-04-23T16:54:51.903Z,100.00
2023-04-23T16:57:22.241Z,100.00
2023-04-23T16:59:52.824Z,100.00
2023-04-23T17:02:24.834Z,100.00
2023-04-23T17:04:55.279Z,100.00
2023-04-23T17:07:26.001Z,100.00
2023-04-23T17:09:56.286Z,100.00
2023-04-23T17:12:26.683Z,100.00
2023-04-23T17:14:56.809Z,100.00
2023-04-23T17:17:27.252Z,100.00
2023-04-23T17:19:57.998Z,100.00
2023-04-23T17:22:28.513Z,100.00
2023-04-23T17:25:00.025Z,100.00
2023-04-23T17:27:30.328Z,100.00
2023-04-23T17:30:00.781Z,100.00
2023-04-23T17:32:30.998Z,100.00
2023-04-23T17:35:09.514Z,100.00
2023-04-23T17:37:40.666Z,100.00
2023-04-23T17:40:12.175Z,100.00
2023-04-23T17:42:42.093Z,100.00
2023-04-23T17:45:13.971Z,100.00
2023-04-23T17:47:44.405Z,100.00
2023-04-23T17:50:15.071Z,100.00
2023-04-23T17:52:46.666Z,100.00
2023-04-23T17:55:17.755Z,100.00
2023-04-23T17:57:48.331Z,100.00
2023-04-23T22:55:47.091Z,68.44
2023-04-23T22:58:17.940Z,67.98
2023-04-23T23:00:48.521Z,67.89
2023-04-23T23:03:19.080Z,68.16
2023-04-23T23:05:49.758Z,67.97
2023-04-23T23:08:20.906Z,67.68
2023-04-23T23:10:51.470Z,67.43
2023-04-23T23:13:21.768Z,67.14
2023-04-23T23:15:52.134Z,67.22
2023-04-23T23:18:22.585Z,66.68
2023-04-23T23:20:53.324Z,66.36
2023-04-23T23:23:23.805Z,66.17
2023-04-23T23:25:54.069Z,66.18
2023-04-23T23:28:24.625Z,65.86
2023-04-23T23:30:56.019Z,65.53
2023-04-23T23:33:26.884Z,65.45
2023-04-23T23:35:57.676Z,65.43
2023-04-23T23:38:28.047Z,65.13
2023-04-23T23:40:58.113Z,65.13
2023-04-23T23:43:28.812Z,64.98
2023-04-23T23:45:59.079Z,65.11
2023-04-23T23:48:29.669Z,64.69
2023-04-23T23:50:59.871Z,64.80
2023-04-23T23:53:30.179Z,64.74
2023-04-23T23:56:00.964Z,64.95
2023-04-23T23:58:31.796Z,64.83
